Time;durP1;ratioP1;P1;durP2;ratioP2;P2;SDS_P1;SDS_P2;PMS_P1;PMS_P2;Temp;Humidity;BMP_temperature;BMP_pressure;BME280_temperature;BME280_humidity;BME280_pressure;Samples;Min_cycle;Max_cycle;Signal;HPM_P1;HPM_P2
2022/04/04 00:00:34;;;;;;;4.15;2.55;;;2.50;99.90;;;;;;5013699;28;20030;-77
2022/04/04 00:03:00;;;;;;;4.47;2.65;;;2.60;99.90;;;;;;5013669;28;20041;-77
2022/04/04 00:05:25;;;;;;;7.35;3.30;;;2.70;99.90;;;;;;5013634;28;20442;-77
2022/04/04 00:07:51;;;;;;;6.35;2.78;;;2.90;99.90;;;;;;5013655;28;20030;-77
2022/04/04 00:10:16;;;;;;;7.80;3.80;;;3.00;99.90;;;;;;5013614;28;20030;-77
2022/04/04 00:12:42;;;;;;;6.22;3.63;;;3.10;99.90;;;;;;5012361;28;20041;-77
2022/04/04 00:15:08;;;;;;;7.35;3.67;;;3.20;99.90;;;;;;5013285;28;20050;-77
2022/04/04 00:17:33;;;;;;;11.05;4.32;;;3.30;99.90;;;;;;5013489;28;20140;-77
2022/04/04 00:20:00;;;;;;;6.45;3.78;;;3.40;99.90;;;;;;5013568;28;20054;-77
2022/04/04 00:22:25;;;;;;;9.23;5.00;;;3.40;99.90;;;;;;5013718;28;20040;-77
2022/04/04 00:24:51;;;;;;;9.70;4.70;;;3.60;99.90;;;;;;5013463;28;20389;-77
2022/04/04 00:27:17;;;;;;;8.93;4.72;;;3.50;99.90;;;;;;5013485;28;20501;-77
2022/04/04 00:29:42;;;;;;;10.65;4.80;;;3.40;99.90;;;;;;5016399;28;20054;-77
2022/04/04 00:32:08;;;;;;;9.40;4.95;;;3.50;99.90;;;;;;5017444;28;20030;-78
2022/04/04 00:34:33;;;;;;;8.48;4.70;;;3.60;99.90;;;;;;5017477;28;20102;-77
2022/04/04 00:36:59;;;;;;;13.00;5.28;;;3.60;99.90;;;;;;5017717;28;20477;-77
2022/04/04 00:39:26;;;;;;;11.68;5.30;;;3.60;99.90;;;;;;5017272;28;20457;-77
2022/04/04 00:41:51;;;;;;;10.93;5.90;;;3.60;99.90;;;;;;5017806;28;20029;-78
2022/04/04 00:44:17;;;;;;;9.85;5.18;;;3.70;99.90;;;;;;5017187;28;20026;-77
2022/04/04 00:46:43;;;;;;;12.60;5.72;;;3.80;99.90;;;;;;5017187;28;20022;-77
2022/04/04 00:49:09;;;;;;;10.55;6.35;;;3.80;99.90;;;;;;5017283;28;20021;-77
2022/04/04 00:51:39;;;;;;;10.90;5.45;;;4.00;99.90;;;;;;5016846;28;20465;-78
2022/04/04 00:54:05;;;;;;;10.32;7.47;;;4.00;99.90;;;;;;4997286;28;20034;-77
2022/04/04 00:56:32;;;;;;;11.02;6.50;;;4.10;99.90;;;;;;4997301;28;20029;-77
2022/04/04 00:58:59;;;;;;;13.13;7.30;;;4.20;99.90;;;;;;4997665;28;20016;-77
2022/04/04 01:01:25;;;;;;;12.90;7.18;;;4.10;99.90;;;;;;5012604;28;20017;-78
2022/04/04 01:03:50;;;;;;;14.38;6.82;;;4.10;99.90;;;;;;5017447;28;20061;-77
2022/04/04 01:06:17;;;;;;;12.52;6.30;;;4.10;99.90;;;;;;5017339;28;20050;-77
2022/04/04 01:08:43;;;;;;;11.00;6.25;;;4.20;99.90;;;;;;5016711;28;20473;-77
2022/04/04 01:11:09;;;;;;;12.85;6.95;;;4.20;99.90;;;;;;5017111;28;20022;-77
2022/04/04 01:13:35;;;;;;;13.50;7.35;;;4.20;99.90;;;;;;5015127;28;20057;-77
2022/04/04 01:16:01;;;;;;;13.32;7.55;;;4.30;99.90;;;;;;5017376;28;20080;-77
2022/04/04 01:18:27;;;;;;;16.45;7.72;;;4.30;99.90;;;;;;5016968;28;20022;-78
2022/04/04 01:20:52;;;;;;;15.73;8.18;;;4.30;99.90;;;;;;5016801;28;20428;-77
2022/04/04 01:23:23;;;;;;;13.13;7.78;;;4.20;99.90;;;;;;5003439;28;20478;-78
2022/04/04 01:25:49;;;;;;;12.80;7.38;;;4.20;99.90;;;;;;4997276;28;20027;-78
2022/04/04 01:28:15;;;;;;;11.52;7.32;;;4.20;99.90;;;;;;4997230;28;20026;-78
2022/04/04 01:30:41;;;;;;;17.92;8.77;;;4.20;99.90;;;;;;5012928;28;20747;-77
2022/04/04 01:33:06;;;;;;;13.60;7.88;;;4.30;99.90;;;;;;5016007;28;20084;-77
2022/04/04 01:38:54;;;;;;;14.02;8.57;;;4.30;99.90;;;;;;4996436;28;20029;-77
2022/04/04 01:41:46;;;;;;;14.48;8.88;;;4.40;99.90;;;;;;4996358;28;20030;-78
2022/04/04 01:44:12;;;;;;;13.80;8.43;;;4.40;99.90;;;;;;4996612;28;20097;-78
2022/04/04 01:46:37;;;;;;;19.48;8.85;;;4.40;99.90;;;;;;4996544;28;20402;-77
2022/04/04 01:49:05;;;;;;;18.55;9.32;;;4.40;99.90;;;;;;4996582;28;20077;-77
2022/04/04 01:51:32;;;;;;;17.58;8.65;;;4.50;99.90;;;;;;4996416;28;20109;-77
2022/04/04 01:57:38;;;;;;;15.05;8.88;;;4.60;99.90;;;;;;4996573;28;20030;-77
2022/04/04 02:03:55;;;;;;;16.27;8.38;;;4.60;99.90;;;;;;5022837;28;20076;-77
2022/04/04 02:06:20;;;;;;;15.60;9.77;;;4.60;99.90;;;;;;5035633;28;20135;-77
2022/04/04 02:09:31;;;;;;;18.42;9.02;;;4.70;99.90;;;;;;5035509;28;20095;-78
2022/04/04 02:11:57;;;;;;;17.48;8.40;;;4.70;99.90;;;;;;5035521;28;20101;-78
2022/04/04 02:14:23;;;;;;;17.33;8.27;;;4.80;99.90;;;;;;5035010;28;20132;-78
2022/04/04 02:16:48;;;;;;;12.90;7.53;;;4.90;99.90;;;;;;5035349;28;20079;-78
2022/04/04 02:19:16;;;;;;;14.02;8.38;;;4.90;99.90;;;;;;5035505;28;20026;-78
2022/04/04 02:21:41;;;;;;;18.67;8.80;;;5.00;99.90;;;;;;5035796;28;20045;-78
2022/04/04 02:24:07;;;;;;;18.05;8.50;;;5.10;99.90;;;;;;5035477;28;20068;-78
2022/04/04 02:26:33;;;;;;;17.42;9.07;;;5.10;99.90;;;;;;5035013;28;20028;-78
2022/04/04 02:28:59;;;;;;;16.00;8.38;;;5.20;99.90;;;;;;5035014;28;20025;-78
2022/04/04 02:31:24;;;;;;;13.75;8.27;;;5.20;99.90;;;;;;5035460;28;20529;-77
2022/04/04 02:33:51;;;;;;;13.27;8.35;;;5.30;99.90;;;;;;5034716;28;20620;-78
2022/04/04 02:36:17;;;;;;;13.05;8.40;;;5.30;99.90;;;;;;5035400;28;20108;-78
2022/04/04 02:38:43;;;;;;;15.45;7.85;;;5.40;99.90;;;;;;5034843;28;20125;-78
2022/04/04 02:41:08;;;;;;;17.80;8.27;;;5.40;99.90;;;;;;5034898;28;20025;-78
2022/04/04 02:43:34;;;;;;;16.67;9.98;;;5.40;99.90;;;;;;5034863;28;20025;-77
2022/04/04 02:45:59;;;;;;;14.93;8.70;;;5.50;99.90;;;;;;5035084;28;20017;-77
2022/04/04 02:48:25;;;;;;;16.30;9.50;;;5.50;99.90;;;;;;5034698;28;20017;-78
2022/04/04 02:50:52;;;;;;;16.70;8.73;;;5.60;99.90;;;;;;5027958;28;20032;-78
2022/04/04 02:53:17;;;;;;;15.38;9.30;;;5.60;99.90;;;;;;5015278;28;20101;-78
2022/04/04 02:58:27;;;;;;;15.45;8.30;;;5.70;99.90;;;;;;4995733;28;20592;-78
2022/04/04 03:00:53;;;;;;;15.32;8.30;;;5.70;99.90;;;;;;4995149;28;20102;-78
2022/04/04 03:03:19;;;;;;;11.48;6.53;;;5.80;99.90;;;;;;4994810;28;20034;-78
2022/04/04 03:05:46;;;;;;;13.52;7.28;;;5.90;99.90;;;;;;4995437;28;20486;-77
2022/04/04 03:08:12;;;;;;;11.63;5.03;;;5.90;99.90;;;;;;5003234;28;20485;-80
2022/04/04 03:11:18;;;;;;;9.75;5.75;;;5.90;99.90;;;;;;5014297;28;20113;-78
2022/04/04 03:13:44;;;;;;;9.52;5.05;;;6.00;99.90;;;;;;5014217;28;20040;-78
2022/04/04 03:16:10;;;;;;;11.38;6.07;;;6.00;99.90;;;;;;5014364;28;20026;-78
2022/04/04 03:18:36;;;;;;;15.93;5.32;;;5.90;99.90;;;;;;5014511;28;20134;-78
2022/04/04 03:21:03;;;;;;;11.10;5.88;;;5.80;99.90;;;;;;5000460;28;20019;-78
2022/04/04 03:23:29;;;;;;;7.28;4.28;;;5.80;99.90;;;;;;4995740;28;20090;-78
2022/04/04 03:25:55;;;;;;;10.85;6.55;;;5.80;99.90;;;;;;5001072;28;20033;-78
2022/04/04 03:28:21;;;;;;;13.68;5.65;;;5.80;99.90;;;;;;4997823;28;20050;-78
2022/04/04 03:30:48;;;;;;;9.55;5.97;;;5.80;99.90;;;;;;4994559;28;20026;-78
2022/04/04 03:33:15;;;;;;;11.98;6.63;;;5.70;99.90;;;;;;4994527;28;20023;-78
2022/04/04 03:35:40;;;;;;;9.98;5.50;;;5.70;99.90;;;;;;4994171;28;20018;-78
2022/04/04 03:38:07;;;;;;;10.65;6.63;;;5.70;99.90;;;;;;4994127;28;20019;-78
2022/04/04 03:40:33;;;;;;;11.98;6.10;;;5.70;99.90;;;;;;4995034;28;20022;-78
2022/04/04 03:43:00;;;;;;;10.57;6.00;;;5.70;99.90;;;;;;4994234;28;20029;-78
2022/04/04 03:45:26;;;;;;;12.23;7.13;;;5.70;99.90;;;;;;4994355;28;20390;-78
2022/04/04 03:47:52;;;;;;;10.85;7.43;;;5.60;99.90;;;;;;4994324;28;20030;-78
2022/04/04 03:50:18;;;;;;;15.63;7.47;;;5.60;99.90;;;;;;4994371;28;20026;-78
2022/04/04 03:52:51;;;;;;;14.50;7.68;;;5.60;99.90;;;;;;5012085;28;20022;-78
2022/04/04 03:55:18;;;;;;;12.48;6.80;;;5.50;99.90;;;;;;5013943;28;20033;-78
2022/04/04 03:57:45;;;;;;;15.93;7.50;;;5.50;99.90;;;;;;5013487;28;20807;-78
2022/04/04 04:00:11;;;;;;;17.42;8.07;;;5.50;99.90;;;;;;5014049;28;20022;-78
2022/04/04 04:02:40;;;;;;;20.27;8.48;;;5.50;99.90;;;;;;5013738;28;20485;-78
2022/04/04 04:05:06;;;;;;;15.82;7.28;;;5.40;99.90;;;;;;5014072;28;20046;-79
2022/04/04 04:07:31;;;;;;;14.80;6.90;;;5.40;99.90;;;;;;5013447;28;20026;-78
2022/04/04 04:09:57;;;;;;;14.13;7.40;;;5.40;99.90;;;;;;5013588;28;20022;-78
2022/04/04 04:12:22;;;;;;;12.48;6.85;;;5.40;99.90;;;;;;5013884;28;20022;-78
2022/04/04 04:14:51;;;;;;;19.35;7.43;;;5.40;99.90;;;;;;5013378;28;20057;-78
2022/04/04 04:17:21;;;;;;;13.00;7.15;;;5.40;99.90;;;;;;4994122;28;20505;-78
2022/04/04 04:22:31;;;;;;;13.60;7.30;;;5.40;99.90;;;;;;4994221;28;20584;-78
2022/04/04 04:24:58;;;;;;;13.38;7.10;;;5.40;99.90;;;;;;5008665;28;20033;-78
2022/04/04 04:27:24;;;;;;;12.80;7.15;;;5.40;99.90;;;;;;5033286;28;20068;-78
2022/04/04 04:29:49;;;;;;;15.95;7.25;;;5.40;99.90;;;;;;5021975;28;20065;-78
2022/04/04 04:32:15;;;;;;;15.23;6.63;;;5.40;99.90;;;;;;5032937;28;20053;-78
2022/04/04 04:34:46;;;;;;;13.85;7.18;;;5.30;99.90;;;;;;5024219;28;20105;-78
2022/04/04 04:37:21;;;;;;;9.80;5.57;;;5.40;99.90;;;;;;5003659;28;20458;-78
2022/04/04 04:39:47;;;;;;;12.13;5.85;;;5.40;99.90;;;;;;5003274;28;20063;-78
2022/04/04 04:42:12;;;;;;;12.02;5.00;;;5.40;99.90;;;;;;5016453;28;20108;-78
2022/04/04 04:44:38;;;;;;;6.68;3.60;;;5.40;99.90;;;;;;5008353;28;20093;-78
2022/04/04 04:47:05;;;;;;;6.82;3.38;;;5.40;99.90;;;;;;5001627;28;20026;-78
2022/04/04 04:49:31;;;;;;;5.65;2.92;;;5.30;99.90;;;;;;5013198;28;20113;-79
2022/04/04 04:51:57;;;;;;;3.35;2.55;;;5.40;99.90;;;;;;5013520;28;20029;-78
2022/04/04 04:54:23;;;;;;;3.25;2.20;;;5.30;99.90;;;;;;5013090;28;20030;-79
2022/04/04 04:56:48;;;;;;;3.97;2.50;;;5.30;99.90;;;;;;4994874;28;20038;-79
2022/04/04 04:59:14;;;;;;;4.90;2.10;;;5.20;99.90;;;;;;5004969;28;20438;-79
2022/04/04 05:01:40;;;;;;;6.22;2.15;;;5.20;99.90;;;;;;4998436;28;20026;-79
2022/04/04 05:04:06;;;;;;;6.63;2.55;;;5.10;99.90;;;;;;4996649;28;20063;-80
2022/04/04 05:06:32;;;;;;;5.05;1.88;;;5.10;99.90;;;;;;5003370;28;20462;-80
2022/04/04 05:08:59;;;;;;;2.28;1.42;;;5.00;99.90;;;;;;5000154;28;20105;-79
2022/04/04 05:11:26;;;;;;;5.22;2.00;;;5.00;99.90;;;;;;4995261;28;20037;-79
2022/04/04 05:13:52;;;;;;;7.28;2.10;;;5.00;99.90;;;;;;4993546;28;20121;-79
2022/04/04 05:16:19;;;;;;;2.65;1.13;;;5.00;99.90;;;;;;5001751;28;20132;-79
2022/04/04 05:18:44;;;;;;;4.78;1.20;;;5.00;99.90;;;;;;5001429;28;20438;-80
2022/04/04 05:21:11;;;;;;;4.50;1.90;;;4.80;99.90;;;;;;5014640;28;20030;-79
2022/04/04 05:23:38;;;;;;;4.88;1.55;;;4.80;99.90;;;;;;5016454;28;20563;-79
2022/04/04 05:26:04;;;;;;;4.55;1.40;;;4.80;99.90;;;;;;5011896;28;20023;-79
2022/04/04 05:28:30;;;;;;;4.82;1.35;;;4.80;99.90;;;;;;4997232;28;20022;-80
2022/04/04 05:34:17;;;;;;;3.92;1.60;;;4.80;99.90;;;;;;5003697;28;20046;-80
2022/04/04 05:36:43;;;;;;;3.83;1.83;;;4.80;99.90;;;;;;5021064;28;20033;-79
2022/04/04 05:39:08;;;;;;;3.95;1.70;;;4.90;99.90;;;;;;5030684;28;20036;-80
2022/04/04 05:41:36;;;;;;;3.33;2.03;;;4.90;99.90;;;;;;5007667;28;20401;-79
2022/04/04 05:44:03;;;;;;;3.20;1.90;;;5.00;99.90;;;;;;5016125;28;20021;-79
2022/04/04 05:46:28;;;;;;;4.00;2.40;;;5.00;99.90;;;;;;5036038;28;20023;-79
2022/04/04 05:48:54;;;;;;;4.60;2.22;;;5.00;99.90;;;;;;5035842;28;20101;-79
2022/04/04 05:51:19;;;;;;;3.72;2.13;;;5.10;99.90;;;;;;5035751;28;20025;-80
2022/04/04 05:53:45;;;;;;;6.15;2.38;;;5.10;99.90;;;;;;5002899;28;20397;-80
2022/04/04 05:56:11;;;;;;;6.75;2.47;;;5.10;99.90;;;;;;5002388;28;20057;-80
2022/04/04 05:58:37;;;;;;;8.73;2.72;;;5.10;99.90;;;;;;5017051;28;20033;-80
2022/04/04 06:01:03;;;;;;;5.22;2.38;;;5.20;99.90;;;;;;5022616;28;20691;-80
2022/04/04 06:03:30;;;;;;;4.85;2.80;;;5.20;99.90;;;;;;5014710;28;20034;-80
2022/04/04 06:05:56;;;;;;;5.93;2.78;;;5.30;99.90;;;;;;5004830;28;20030;-79
2022/04/04 06:08:22;;;;;;;4.95;2.90;;;5.30;99.90;;;;;;5006325;28;20619;-80
2022/04/04 06:10:48;;;;;;;6.57;2.95;;;5.30;1.00;;;;;;5025211;28;20049;-80
2022/04/04 06:13:15;;;;;;;6.53;3.90;;;5.40;1.00;;;;;;5018900;28;20024;-80
2022/04/04 06:15:42;;;;;;;9.63;4.55;;;5.40;1.00;;;;;;4999378;28;20487;-80
2022/04/04 06:18:09;;;;;;;10.00;4.53;;;5.50;1.00;;;;;;5012551;28;20034;-80
2022/04/04 06:20:35;;;;;;;12.05;5.82;;;5.50;99.90;;;;;;5006700;28;20037;-80
2022/04/04 06:23:00;;;;;;;11.85;6.88;;;5.60;99.90;;;;;;5001224;28;20375;-80
2022/04/04 06:25:26;;;;;;;10.40;5.22;;;5.60;1.00;;;;;;5002045;28;20230;-80
2022/04/04 06:27:52;;;;;;;12.13;5.15;;;5.70;1.00;;;;;;5008655;28;20045;-80
2022/04/04 06:30:18;;;;;;;14.25;5.90;;;5.70;99.90;;;;;;5000652;28;20392;-80
2022/04/04 06:32:44;;;;;;;13.43;5.60;;;5.80;99.90;;;;;;5008032;28;20050;-80
2022/04/04 06:35:11;;;;;;;9.63;5.45;;;5.80;99.90;;;;;;5001888;28;20062;-80
2022/04/04 06:37:36;;;;;;;10.10;4.97;;;5.80;99.90;;;;;;5006725;28;20425;-80
2022/04/04 06:40:04;;;;;;;10.32;5.43;;;5.80;99.90;;;;;;5003917;28;20501;-80
2022/04/04 06:42:31;;;;;;;11.82;5.45;;;5.80;99.90;;;;;;4993354;28;20041;-80
2022/04/04 06:44:58;;;;;;;14.95;5.65;;;5.80;99.90;;;;;;5009920;28;20065;-80
2022/04/04 06:47:24;;;;;;;10.10;4.53;;;5.80;99.90;;;;;;4997407;28;20014;-80
2022/04/04 06:49:52;;;;;;;11.50;5.20;;;5.80;99.90;;;;;;5008546;28;20033;-80
2022/04/04 06:52:18;;;;;;;11.65;5.45;;;5.90;99.90;;;;;;5002858;28;20023;-80
2022/04/04 06:54:44;;;;;;;9.88;4.72;;;5.90;99.90;;;;;;4996547;28;20069;-80
2022/04/04 06:57:10;;;;;;;13.27;6.00;;;5.90;99.90;;;;;;5009026;28;20025;-80
2022/04/04 06:59:35;;;;;;;15.02;5.93;;;6.00;99.90;;;;;;5015961;28;20022;-80
2022/04/04 07:02:01;;;;;;;13.85;6.22;;;6.00;99.90;;;;;;4995876;28;20422;-80
2022/04/04 07:04:26;;;;;;;10.77;5.68;;;6.10;1.00;;;;;;5012642;28;20494;-80
2022/04/04 07:06:52;;;;;;;12.00;5.93;;;6.10;1.00;;;;;;5005725;28;20556;-81
2022/04/04 07:09:17;;;;;;;13.30;5.80;;;6.10;1.00;;;;;;5019378;28;20541;-80
2022/04/04 07:11:43;;;;;;;16.35;5.93;;;6.10;1.00;;;;;;5007718;28;20032;-80
2022/04/04 07:14:10;;;;;;;9.90;4.60;;;6.10;1.00;;;;;;4996963;28;20062;-80
2022/04/04 07:16:36;;;;;;;14.75;5.32;;;6.10;1.00;;;;;;5015625;28;20026;-80
2022/04/04 07:19:01;;;;;;;8.38;4.47;;;6.20;1.00;;;;;;5017635;28;20444;-80
2022/04/04 07:21:28;;;;;;;7.95;4.57;;;6.20;1.00;;;;;;5019210;28;20037;-80
2022/04/04 07:23:54;;;;;;;10.75;4.82;;;6.20;1.00;;;;;;5012273;28;20465;-80
2022/04/04 07:26:21;;;;;;;9.68;4.30;;;6.20;1.00;;;;;;5011863;28;20521;-80
2022/04/04 07:28:47;;;;;;;13.73;5.90;;;6.20;1.00;;;;;;5007145;28;20014;-80
2022/04/04 07:31:14;;;;;;;11.60;4.78;;;6.20;1.00;;;;;;5004023;28;20029;-80
2022/04/04 07:33:40;;;;;;;12.90;4.95;;;6.30;1.00;;;;;;5009295;28;20030;-80
2022/04/04 07:36:06;;;;;;;8.82;4.43;;;6.30;1.00;;;;;;5006943;28;20030;-80
2022/04/04 07:38:32;;;;;;;10.05;4.18;;;6.30;1.00;;;;;;5010772;28;20482;-80
2022/04/04 07:40:58;;;;;;;9.85;4.60;;;6.30;1.00;;;;;;5011718;28;20029;-80
2022/04/04 07:43:23;;;;;;;7.03;3.70;;;6.40;1.00;;;;;;5018243;28;20075;-80
2022/04/04 07:45:49;;;;;;;8.25;3.75;;;6.40;99.90;;;;;;5012247;28;20080;-80
2022/04/04 07:48:14;;;;;;;8.48;3.90;;;6.50;99.90;;;;;;4993390;28;20022;-80
2022/04/04 07:50:43;;;;;;;9.90;4.07;;;6.60;99.90;;;;;;5006693;28;20035;-80
2022/04/04 07:53:09;;;;;;;4.88;3.03;;;6.60;99.90;;;;;;5013693;28;20023;-81
2022/04/04 07:55:36;;;;;;;7.90;3.20;;;6.40;99.90;;;;;;5016529;28;20042;-80
2022/04/04 07:58:02;;;;;;;8.27;4.47;;;6.40;99.90;;;;;;5014103;28;20023;-81
2022/04/04 08:00:28;;;;;;;9.18;3.63;;;6.40;99.90;;;;;;5022203;28;20048;-80
2022/04/04 08:02:54;;;;;;;9.55;3.95;;;6.40;99.90;;;;;;5026935;28;21188;-80
2022/04/04 08:05:21;;;;;;;6.53;3.90;;;6.50;99.90;;;;;;5030488;28;20026;-80
2022/04/04 08:07:48;;;;;;;6.28;2.90;;;6.50;99.90;;;;;;5018719;28;20054;-80
2022/04/04 08:10:15;;;;;;;8.95;3.88;;;6.50;99.90;;;;;;4996147;28;20021;-80
2022/04/04 08:12:41;;;;;;;5.72;3.38;;;6.50;99.90;;;;;;5007436;28;20041;-81
2022/04/04 08:15:08;;;;;;;7.13;3.17;;;6.60;99.90;;;;;;5018744;28;20039;-80
2022/04/04 08:17:34;;;;;;;7.20;3.67;;;6.60;99.90;;;;;;5018385;28;20021;-80
2022/04/04 08:20:00;;;;;;;3.30;2.13;;;6.60;99.90;;;;;;5029614;28;20026;-80
2022/04/04 08:22:26;;;;;;;5.85;2.80;;;6.60;99.90;;;;;;5013477;28;20034;-80
2022/04/04 08:24:51;;;;;;;3.78;2.75;;;6.70;99.90;;;;;;4999906;28;20022;-80
2022/04/04 08:27:18;;;;;;;4.18;2.45;;;6.60;99.90;;;;;;4996414;28;20518;-80
2022/04/04 08:29:43;;;;;;;7.18;2.13;;;6.60;99.90;;;;;;5004533;28;20393;-80
2022/04/04 08:32:09;;;;;;;6.93;2.42;;;6.70;99.90;;;;;;5010427;28;20750;-81
2022/04/04 08:34:35;;;;;;;5.10;2.90;;;6.70;99.90;;;;;;5012026;28;20065;-79
2022/04/04 08:37:01;;;;;;;7.07;3.33;;;6.70;99.90;;;;;;5000085;28;20107;-80
2022/04/04 08:39:28;;;;;;;4.57;2.47;;;6.80;99.90;;;;;;5011029;28;20022;-80
2022/04/04 08:41:55;;;;;;;5.72;2.03;;;6.70;99.90;;;;;;5013662;28;20042;-80
2022/04/04 08:44:22;;;;;;;4.13;1.92;;;6.80;99.90;;;;;;5007563;28;20030;-80
2022/04/04 08:46:48;;;;;;;4.53;2.17;;;6.80;99.90;;;;;;4995211;28;20037;-80
2022/04/04 08:49:14;;;;;;;5.32;1.90;;;6.90;99.90;;;;;;5000449;28;20022;-80
2022/04/04 08:51:41;;;;;;;5.50;2.17;;;7.00;99.90;;;;;;5001333;28;20018;-80
2022/04/04 08:54:07;;;;;;;7.20;2.72;;;7.10;99.90;;;;;;4998477;28;20035;-80
2022/04/04 08:56:33;;;;;;;8.63;2.55;;;7.10;99.90;;;;;;5007217;28;20456;-80
2022/04/04 08:58:58;;;;;;;6.40;2.70;;;7.10;99.90;;;;;;4997577;28;20376;-80
2022/04/04 09:01:27;;;;;;;6.68;2.42;;;7.20;99.90;;;;;;5003643;28;20612;-80
2022/04/04 09:04:16;;;;;;;8.00;2.50;;;7.20;99.90;;;;;;5001703;28;20054;-80
2022/04/04 09:06:57;;;;;;;7.15;2.53;;;7.20;99.90;;;;;;5003392;28;20100;-80
2022/04/04 09:09:26;;;;;;;;;;;7.30;99.90;;;;;;4998994;28;20049;-81
2022/04/04 09:12:14;;;;;;;2.83;1.90;;;7.10;99.90;;;;;;5010886;28;19910;-79
2022/04/04 09:14:54;;;;;;;5.47;2.45;;;7.10;99.90;;;;;;4995097;28;20532;-80
2022/04/04 09:17:32;;;;;;;4.63;1.70;;;7.30;99.90;;;;;;5005516;28;20117;-81
2022/04/04 09:19:58;;;;;;;2.95;1.27;;;7.40;99.90;;;;;;5002620;28;20529;-80
2022/04/04 09:22:24;;;;;;;9.68;2.22;;;7.40;99.90;;;;;;5016534;28;20190;-80
2022/04/04 09:25:02;;;;;;;7.13;2.10;;;7.60;99.90;;;;;;5004152;28;20470;-80
2022/04/04 09:27:33;;;;;;;3.78;1.60;;;7.60;99.90;;;;;;5005126;28;20018;-80
2022/04/04 09:30:19;;;;;;;3.70;1.52;;;7.50;99.90;;;;;;5008521;28;20038;-80
2022/04/04 09:32:46;;;;;;;5.82;1.85;;;7.60;99.90;;;;;;4999590;28;20456;-81
2022/04/04 09:35:14;;;;;;;3.67;1.55;;;7.70;99.90;;;;;;5014450;28;20462;-80
2022/04/04 09:37:45;;;;;;;3.70;1.80;;;7.70;99.90;;;;;;4994032;28;20040;-80
2022/04/04 09:40:14;;;;;;;3.58;1.60;;;7.80;99.90;;;;;;4993802;28;20022;-80
2022/04/04 09:42:40;;;;;;;4.22;1.70;;;7.80;99.90;;;;;;5014631;28;20018;-80
2022/04/04 09:45:09;;;;;;;5.63;1.60;;;7.80;99.90;;;;;;5008791;28;20099;-80
2022/04/04 09:47:48;;;;;;;4.85;1.30;;;7.90;99.90;;;;;;5001394;28;20031;-81
2022/04/04 09:50:35;;;;;;;6.20;1.15;;;7.80;99.90;;;;;;5001582;28;20238;-80
2022/04/04 09:53:03;;;;;;;2.83;1.70;;;7.70;99.90;;;;;;5010025;28;20030;-80
2022/04/04 09:55:36;;;;;;;2.50;1.13;;;7.70;99.90;;;;;;5009345;28;20030;-80
2022/04/04 09:58:08;;;;;;;3.80;1.10;;;7.80;99.90;;;;;;5005713;28;20025;-80
2022/04/04 10:00:38;;;;;;;4.50;1.33;;;7.90;99.90;;;;;;4999205;28;20091;-80
2022/04/04 10:03:07;;;;;;;4.68;1.00;;;7.90;99.90;;;;;;4997736;28;20101;-80
2022/04/04 10:05:34;;;;;;;2.00;0.88;;;7.90;99.90;;;;;;5006150;28;20450;-80
2022/04/04 10:08:00;;;;;;;5.05;1.17;;;7.80;99.90;;;;;;5013110;28;20108;-79
2022/04/04 10:10:28;;;;;;;2.95;1.08;;;7.80;99.90;;;;;;4995750;28;20105;-79
2022/04/04 10:12:55;;;;;;;4.68;1.23;;;7.90;99.90;;;;;;5009083;28;20030;-79
2022/04/04 10:15:23;;;;;;;2.95;1.30;;;8.00;99.90;;;;;;5001096;28;20395;-79
2022/04/04 10:17:50;;;;;;;1.73;0.73;;;8.10;99.90;;;;;;5008538;28;20130;-80
2022/04/04 10:20:16;;;;;;;1.33;0.70;;;8.00;99.90;;;;;;5009791;28;20488;-80
2022/04/04 10:22:47;;;;;;;2.90;1.13;;;8.10;99.90;;;;;;5010749;28;20026;-80
2022/04/04 10:25:14;;;;;;;4.43;1.35;;;8.20;99.90;;;;;;5005509;28;20018;-80
2022/04/04 10:27:40;;;;;;;4.22;1.20;;;8.20;99.90;;;;;;4998503;28;20030;-80
2022/04/04 10:30:08;;;;;;;2.05;0.95;;;8.20;99.90;;;;;;4999554;28;20033;-80
2022/04/04 10:32:34;;;;;;;5.78;1.45;;;8.00;99.90;;;;;;4993138;28;20026;-79
2022/04/04 10:35:12;;;;;;;3.42;1.27;;;8.10;99.90;;;;;;4997531;28;20120;-80
2022/04/04 10:37:44;;;;;;;2.80;1.10;;;8.10;99.90;;;;;;4994788;28;20049;-79
2022/04/04 10:40:17;;;;;;;2.92;1.00;;;8.10;99.90;;;;;;5011324;28;20133;-79
2022/04/04 10:42:43;;;;;;;2.47;0.93;;;8.10;99.90;;;;;;5000530;28;20065;-79
2022/04/04 10:45:13;;;;;;;2.67;0.90;;;8.20;99.90;;;;;;5003937;28;20061;-79
2022/04/04 10:47:42;;;;;;;2.20;1.00;;;8.20;99.90;;;;;;5009885;28;20080;-80
2022/04/04 10:50:29;;;;;;;3.05;1.20;;;8.30;99.90;;;;;;4992413;28;20027;-80
2022/04/04 10:52:59;;;;;;;1.77;1.17;;;8.30;99.90;;;;;;5009998;28;20150;-80
2022/04/04 10:55:29;;;;;;;1.35;0.90;;;8.40;99.90;;;;;;4996849;28;20026;-80
2022/04/04 10:57:59;;;;;;;2.97;1.40;;;8.40;99.90;;;;;;5010481;28;20022;-80
2022/04/04 11:00:32;;;;;;;;;;;8.50;99.90;;;;;;5017064;28;20030;-81
2022/04/04 11:03:00;;;;;;;1.80;1.20;;;8.60;99.90;;;;;;5011080;28;20376;-80
2022/04/04 11:09:46;;;;;;;;;;;;;;;;;;;;;
2022/04/04 11:15:27;;;;;;;3.80;2.20;;;8.80;99.90;;;;;;5006210;28;20061;-80
2022/04/04 11:18:00;;;;;;;7.43;2.75;;;8.90;99.90;;;;;;4998108;28;20393;-80
2022/04/04 11:20:31;;;;;;;6.68;2.90;;;9.00;99.90;;;;;;5002299;28;20036;-80
2022/04/04 11:23:18;;;;;;;7.80;3.10;;;9.30;99.90;;;;;;5015708;28;20461;-81
2022/04/04 11:25:53;;;;;;;7.18;3.28;;;9.20;99.90;;;;;;4997662;28;20073;-80
2022/04/04 11:31:13;;;;;;;8.15;3.83;;;9.20;99.90;;;;;;5004014;28;20290;-81
2022/04/04 11:33:54;;;;;;;8.05;4.15;;;9.20;99.90;;;;;;4994683;28;20026;-80
2022/04/04 11:36:30;;;;;;;;;;;9.20;99.90;;;;;;5007026;28;20096;-81
2022/04/04 11:39:03;;;;;;;10.05;4.10;;;9.10;99.90;;;;;;5013741;28;19909;-80
2022/04/04 11:41:36;;;;;;;11.60;4.15;;;9.10;99.90;;;;;;5011050;28;20025;-80
2022/04/04 11:44:02;;;;;;;10.35;4.05;;;9.10;99.90;;;;;;5008709;28;20046;-80
2022/04/04 11:46:40;;;;;;;7.88;3.50;;;9.10;99.90;;;;;;5015253;28;20477;-80
2022/04/04 11:49:36;;;;;;;9.88;3.75;;;9.10;99.90;;;;;;5008499;28;20526;-80
2022/04/04 11:52:04;;;;;;;10.18;4.10;;;9.00;99.90;;;;;;4995512;28;20038;-80
2022/04/04 11:57:46;;;;;;;7.68;3.90;;;9.10;99.90;;;;;;5010172;28;20100;-80
2022/04/04 12:00:25;;;;;;;;;;;;;;;;;;;;;
2022/04/04 12:02:52;;;;;;;12.65;4.57;;;9.10;99.90;;;;;;5002845;28;20113;-80
2022/04/04 12:05:22;;;;;;;8.30;4.47;;;9.10;99.90;;;;;;5008025;28;20121;-79
2022/04/04 12:07:49;;;;;;;12.48;4.72;;;9.20;99.90;;;;;;5008742;28;20029;-80
2022/04/04 12:10:37;;;;;;;11.60;5.22;;;9.20;99.90;;;;;;5015225;28;20038;-81
2022/04/04 12:13:08;;;;;;;8.55;4.68;;;9.20;99.90;;;;;;5004155;28;20048;-80
2022/04/04 12:15:36;;;;;;;11.73;4.85;;;9.30;99.90;;;;;;5015787;28;20053;-81
2022/04/04 12:18:04;;;;;;;5.97;3.13;;;9.40;99.90;;;;;;5004360;28;20045;-80
2022/04/04 12:20:41;;;;;;;7.43;3.85;;;9.30;99.90;;;;;;5014700;28;20030;-81
2022/04/04 12:25:55;;;;;;;10.25;4.00;;;9.30;99.90;;;;;;5012609;28;20409;-81
2022/04/04 12:28:22;;;;;;;12.77;4.57;;;9.40;99.90;;;;;;5003202;28;20029;-80
2022/04/04 12:30:48;;;;;;;11.43;4.55;;;9.40;99.90;;;;;;5012071;28;20386;-80
2022/04/04 12:33:15;;;;;;;12.88;4.25;;;9.40;99.90;;;;;;5012878;28;20520;-80
2022/04/04 12:35:46;;;;;;;16.08;4.68;;;9.50;99.90;;;;;;5018997;28;20045;-80
2022/04/04 12:38:24;;;;;;;10.05;3.40;;;9.50;99.90;;;;;;5011628;28;20046;-80
2022/04/04 12:41:06;;;;;;;9.80;3.47;;;9.50;99.90;;;;;;5029267;28;20106;-80
2022/04/04 12:43:31;;;;;;;13.82;4.35;;;9.50;99.90;;;;;;5018250;28;20105;-79
2022/04/04 12:45:57;;;;;;;11.50;3.80;;;9.60;99.90;;;;;;5020515;28;20076;-80
2022/04/04 12:48:38;;;;;;;13.75;4.60;;;9.60;99.90;;;;;;5020138;28;20018;-80
2022/04/04 12:51:06;;;;;;;13.02;3.70;;;9.70;99.90;;;;;;5012000;28;20030;-81
2022/04/04 12:54:01;;;;;;;8.70;4.20;;;9.70;99.90;;;;;;4999286;28;20022;-81
2022/04/04 12:56:31;;;;;;;17.17;4.38;;;9.80;99.90;;;;;;4985518;28;20031;-81
2022/04/04 12:59:05;;;;;;;13.25;4.25;;;9.90;99.90;;;;;;5003133;28;20088;-81
2022/04/04 13:01:31;;;;;;;13.65;4.10;;;10.00;99.90;;;;;;5016874;28;20076;-81
2022/04/04 13:03:58;;;;;;;13.43;3.88;;;10.00;99.90;;;;;;5004575;28;20030;-80
2022/04/04 13:06:28;;;;;;;14.05;4.47;;;10.10;99.90;;;;;;5022253;28;20053;-81
2022/04/04 13:09:02;;;;;;;8.88;3.97;;;10.10;99.90;;;;;;5017365;28;20137;-80
2022/04/04 13:11:29;;;;;;;7.00;2.97;;;10.10;99.90;;;;;;5010767;28;20519;-80
2022/04/04 13:14:07;;;;;;;12.73;4.05;;;10.00;99.90;;;;;;5007371;28;20038;-80
2022/04/04 13:16:37;;;;;;;11.57;4.28;;;9.90;99.90;;;;;;5004789;28;20189;-81
2022/04/04 13:19:10;;;;;;;9.07;3.35;;;9.80;99.90;;;;;;5011498;28;20034;-81
2022/04/04 13:21:38;;;;;;;10.38;4.43;;;9.90;99.90;;;;;;5006113;28;20018;-81
2022/04/04 13:24:04;;;;;;;14.85;5.13;;;9.90;99.90;;;;;;5012037;28;20022;-80
2022/04/04 13:26:30;;;;;;;15.95;4.10;;;9.90;99.90;;;;;;4997116;28;20104;-81
2022/04/04 13:28:56;;;;;;;15.32;4.28;;;9.90;99.90;;;;;;5013637;28;20101;-80
2022/04/04 13:31:22;;;;;;;19.77;5.00;;;10.00;99.90;;;;;;5010631;28;20117;-80
2022/04/04 13:33:49;;;;;;;14.85;4.88;;;10.00;99.90;;;;;;5010662;28;20116;-79
2022/04/04 13:36:15;;;;;;;14.70;4.85;;;9.90;99.90;;;;;;5010076;28;20022;-80